createdAt,value
2022-09-10T00:00:01.311Z,100311.69
2022-09-10T00:02:27.679Z,100313.78
2022-09-10T00:04:54.015Z,100310.22
2022-09-10T00:07:20.323Z,100313.63
2022-09-10T00:09:46.631Z,100322.41
2022-09-10T00:12:12.957Z,100312.63
2022-09-10T00:14:40.569Z,100310.22
2022-09-10T00:17:07.131Z,100308.53
2022-09-10T00:19:33.434Z,100303.88
2022-09-10T00:21:59.772Z,100304.84
2022-09-10T00:24:26.139Z,100298.25
2022-09-10T00:26:52.457Z,100300.06
2022-09-10T00:29:18.767Z,100299.78
2022-09-10T00:31:46.555Z,100292.72
2022-09-10T00:34:13.360Z,100294.69
2022-09-10T00:36:40.453Z,100305.56
2022-09-10T00:39:07.666Z,100293.16
2022-09-10T00:41:35.495Z,100291.88
2022-09-10T00:44:03.417Z,100296.41
2022-09-10T00:46:33.287Z,100299.09
2022-09-10T00:49:02.931Z,100301.47
2022-09-10T00:51:32.142Z,100302.31
2022-09-10T00:53:58.912Z,100310.22
2022-09-10T00:56:25.573Z,100303.31
2022-09-10T00:58:51.995Z,100304.16
2022-09-10T01:01:18.937Z,100306.44
2022-09-10T01:03:46.260Z,100303.88
2022-09-10T01:06:13.868Z,100302.06
2022-09-10T01:08:40.331Z,100300.22
2022-09-10T01:11:11.923Z,100295.13
2022-09-10T01:13:45.059Z,100303.03
2022-09-10T01:16:16.989Z,100302.31
2022-09-10T01:18:49.850Z,100305.84
2022-09-10T01:21:22.528Z,100309.09
2022-09-10T01:24:10.031Z,100306.56
2022-09-10T01:26:48.383Z,100305.72
2022-09-10T01:29:20.092Z,100306.56
2022-09-10T01:31:50.695Z,100306.69
2022-09-10T01:34:20.275Z,100303.16
2022-09-10T01:36:48.770Z,100308.25
2022-09-10T01:39:15.529Z,100294.69
2022-09-10T01:41:42.099Z,100289.91
2022-09-10T01:44:09.193Z,100293.59
2022-09-10T01:46:40.059Z,100290.91
2022-09-10T01:49:14.693Z,100295.56
2022-09-10T01:51:52.577Z,100291.88
2022-09-10T01:54:22.619Z,100299.78
2022-09-10T01:56:53.200Z,100299.78
2022-09-10T01:59:24.063Z,100290.06
2022-09-10T02:01:55.099Z,100296.69
2022-09-10T02:04:22.283Z,100306.44
2022-09-10T02:06:49.646Z,100297.38
2022-09-10T02:09:16.718Z,100305.56
2022-09-10T02:11:43.829Z,100311.78
2022-09-10T02:14:10.279Z,100307.28
2022-09-10T02:16:38.956Z,100309.09
2022-09-10T02:19:07.155Z,100310.38
2022-09-10T02:21:33.977Z,100311.22
2022-09-10T02:24:03.187Z,100305.84
2022-09-10T02:26:29.520Z,100310.22
2022-09-10T02:28:55.847Z,100305.56
2022-09-10T02:31:22.252Z,100309.25
2022-09-10T02:33:48.602Z,100292.31
2022-09-10T02:36:16.345Z,100302.06
2022-09-10T02:38:42.674Z,100313.91
2022-09-10T02:41:08.978Z,100298.63
2022-09-10T02:43:35.308Z,100305.72
2022-09-10T02:46:01.660Z,100311.78
2022-09-10T02:48:28.219Z,100310.22
2022-09-10T02:50:54.536Z,100303.88
2022-09-10T02:53:22.139Z,100306.44
2022-09-10T02:55:48.775Z,100306.31
2022-09-10T02:58:15.826Z,100307.41
2022-09-10T03:00:42.723Z,100308.41
2022-09-10T03:03:09.159Z,100316.59
2022-09-10T03:05:35.461Z,100310.94
2022-09-10T03:08:02.014Z,100316.47
2022-09-10T03:10:29.635Z,100320.69
2022-09-10T03:12:55.954Z,100311.78
2022-09-10T03:15:22.256Z,100311.78
2022-09-10T03:17:48.588Z,100316.84
2022-09-10T03:20:15.210Z,100308.41
2022-09-10T03:22:41.567Z,100315.59
2022-09-10T03:25:07.897Z,100324.38
2022-09-10T03:27:35.931Z,100313.63
2022-09-10T03:30:02.404Z,100318.72
2022-09-10T03:32:28.735Z,100311.94
2022-09-10T03:34:55.059Z,100316.31
2022-09-10T03:37:21.358Z,100315.47
2022-09-10T03:39:47.802Z,100328.88
2022-09-10T03:42:14.150Z,100320.00
2022-09-10T03:44:41.752Z,100315.59
2022-09-10T03:47:08.096Z,100316.72
2022-09-10T03:49:34.386Z,100324.63
2022-09-10T03:52:00.790Z,100316.84
2022-09-10T03:54:27.105Z,100322.09
2022-09-10T03:56:53.434Z,100312.31
2022-09-10T03:59:19.852Z,100320.25
2022-09-10T04:01:47.479Z,100317.44
2022-09-10T04:04:13.836Z,100319.16
2022-09-10T04:06:40.175Z,100319.84
2022-09-10T04:09:06.529Z,100317.16
2022-09-10T04:11:32.908Z,100319.00
2022-09-10T04:13:59.232Z,100318.28
2022-09-10T04:16:25.600Z,100322.69
2022-09-10T04:18:53.233Z,100317.31
2022-09-10T04:21:19.523Z,100320.00
2022-09-10T04:23:45.846Z,100322.69
2022-09-10T04:26:13.054Z,100324.63
2022-09-10T04:28:39.494Z,100331.84
2022-09-10T04:31:06.071Z,100332.00
2022-09-10T04:33:32.386Z,100332.94
2022-09-10T04:36:00.141Z,100324.91
2022-09-10T04:38:26.497Z,100328.31
2022-09-10T04:40:52.794Z,100334.78
2022-09-10T04:43:19.212Z,100328.03
2022-09-10T04:45:45.646Z,100325.34
2022-09-10T04:48:11.970Z,100327.19
2022-09-10T04:50:49.983Z,100340.72
2022-09-10T04:53:27.015Z,100338.06
2022-09-10T04:55:54.326Z,100330.00
2022-09-10T04:58:20.678Z,100335.38
2022-09-10T05:00:47.041Z,100339.75
2022-09-10T05:03:13.490Z,100338.19
2022-09-10T05:05:40.152Z,100346.38
2022-09-10T05:08:06.472Z,100349.47
2022-09-10T05:10:34.083Z,100348.19
2022-09-10T05:13:00.387Z,100347.22
2022-09-10T05:15:26.815Z,100357.38
2022-09-10T05:17:53.139Z,100353.47
2022-09-10T05:20:19.451Z,100352.31
2022-09-10T05:22:45.752Z,100358.53
2022-09-10T05:25:12.072Z,100351.47
2022-09-10T05:27:39.733Z,100358.53
2022-09-10T05:30:06.571Z,100353.16
2022-09-10T05:32:32.888Z,100359.41
2022-09-10T05:34:59.279Z,100354.88
2022-09-10T05:37:25.630Z,100356.97
2022-09-10T05:39:51.954Z,100359.66
2022-09-10T05:42:18.332Z,100368.56
2022-09-10T05:44:45.953Z,100374.78
2022-09-10T05:47:12.326Z,100371.38
2022-09-10T05:49:38.654Z,100378.44
2022-09-10T05:52:05.026Z,100375.63
2022-09-10T05:54:31.330Z,100377.59
2022-09-10T05:56:57.812Z,100381.72
2022-09-10T05:59:24.302Z,100371.94
2022-09-10T06:01:51.935Z,100372.94
2022-09-10T06:04:18.336Z,100375.63
2022-09-10T06:06:44.736Z,100381.97
2022-09-10T06:09:11.367Z,100376.63
2022-09-10T06:11:38.473Z,100379.31
2022-09-10T06:14:04.842Z,100379.41
2022-09-10T06:16:31.462Z,100387.34
2022-09-10T06:18:59.225Z,100380.28
2022-09-10T06:21:28.283Z,100387.75
2022-09-10T06:23:55.128Z,100386.03
2022-09-10T06:26:21.598Z,100394.81
2022-09-10T06:28:48.230Z,100398.34
2022-09-10T06:31:14.556Z,100397.34
2022-09-10T06:33:40.882Z,100405.13
2022-09-10T06:36:08.974Z,100412.59
2022-09-10T06:38:35.400Z,100416.13
2022-09-10T06:41:03.499Z,100421.50
2022-09-10T06:43:32.059Z,100418.13
2022-09-10T06:45:58.575Z,100430.53
2022-09-10T06:48:49.656Z,100423.50
2022-09-10T06:51:14.165Z,100423.50
2022-09-10T06:53:40.964Z,100427.88
2022-09-10T06:56:08.055Z,100429.69
2022-09-10T06:58:34.789Z,100435.47
2022-09-10T07:01:05.471Z,100430.09
2022-09-10T07:03:31.782Z,100442.28
2022-09-10T07:06:02.044Z,100446.66
2022-09-10T07:08:29.652Z,100449.34
2022-09-10T07:11:00.889Z,100454.44
2022-09-10T07:13:27.308Z,100454.56
2022-09-10T07:15:53.656Z,100451.88
2022-09-10T07:18:20.084Z,100454.69
2022-09-10T07:20:46.521Z,100452.75
2022-09-10T07:23:13.522Z,100455.44
2022-09-10T07:25:41.639Z,100448.22
2022-09-10T07:28:12.384Z,100457.13
2022-09-10T07:30:39.087Z,100455.28
2022-09-10T07:33:05.451Z,100459.53
2022-09-10T07:35:33.732Z,100464.69
2022-09-10T07:38:00.069Z,100466.28
2022-09-10T07:40:26.463Z,100473.22
2022-09-10T07:42:54.225Z,100475.19
2022-09-10T07:45:20.547Z,100470.06
2022-09-10T07:47:47.345Z,100478.59
2022-09-10T07:50:13.958Z,100476.63
2022-09-10T07:52:40.562Z,100476.91
2022-09-10T07:55:07.482Z,100478.00
2022-09-10T07:57:34.143Z,100478.72
2022-09-10T08:00:01.880Z,100475.66
2022-09-10T08:02:28.257Z,100477.34
2022-09-10T08:04:54.615Z,100471.25
2022-09-10T08:07:20.942Z,100475.75
2022-09-10T08:09:47.291Z,100477.34
2022-09-10T08:12:13.632Z,100482.84
2022-09-10T08:14:40.037Z,100479.44
2022-09-10T08:17:07.636Z,100478.84
2022-09-10T08:19:33.964Z,100480.53
2022-09-10T08:22:00.257Z,100484.06
2022-09-10T08:24:26.579Z,100491.88
2022-09-10T08:26:53.010Z,100497.13
2022-09-10T08:29:19.332Z,100499.25
2022-09-10T08:31:45.706Z,100503.06
2022-09-10T08:34:13.483Z,100504.91
2022-09-10T08:36:39.816Z,100507.44
2022-09-10T08:39:08.389Z,100509.16
2022-09-10T08:41:42.519Z,100515.25
2022-09-10T08:44:12.212Z,100507.31
2022-09-10T08:46:42.932Z,100517.34
2022-09-10T08:49:14.282Z,100513.34
2022-09-10T08:51:44.717Z,100514.06
2022-09-10T08:54:13.704Z,100509.56
2022-09-10T08:56:40.408Z,100510.28
2022-09-10T08:59:12.557Z,100516.50
2022-09-10T09:01:42.428Z,100512.81
2022-09-10T09:04:12.731Z,100519.03
2022-09-10T09:06:41.173Z,100520.13
2022-09-10T09:09:14.785Z,100521.72
2022-09-10T09:11:49.177Z,100520.88
2022-09-10T09:14:20.771Z,100517.34
2022-09-10T09:16:56.641Z,100522.72
2022-09-10T09:19:26.953Z,100521.97
2022-09-10T09:21:54.015Z,100532.94
2022-09-10T09:24:23.596Z,100530.75
2022-09-10T09:26:49.963Z,100528.34
2022-09-10T09:29:19.286Z,100525.66
2022-09-10T09:31:47.568Z,100529.19
2022-09-10T09:34:15.619Z,100527.22
2022-09-10T09:36:45.550Z,100533.31
2022-09-10T09:39:15.036Z,100534.03
2022-09-10T09:41:51.606Z,100541.25
2022-09-10T09:44:21.797Z,100539.25
2022-09-10T09:46:48.138Z,100526.97
2022-09-10T09:49:15.308Z,100538.56
2022-09-10T09:51:41.974Z,100539.41
2022-09-10T09:54:46.662Z,100533.03
2022-09-10T09:56:59.342Z,100534.75
2022-09-10T09:59:27.154Z,100527.94
2022-09-10T10:01:54.302Z,100528.94
2022-09-10T10:04:21.727Z,100531.47
2022-09-10T10:06:53.680Z,100528.94
2022-09-10T10:09:21.345Z,100529.78
2022-09-10T10:11:49.843Z,100527.22
2022-09-10T10:14:32.452Z,100536.72
2022-09-10T10:17:00.887Z,100536.31
2022-09-10T10:19:29.694Z,100539.84
2022-09-10T10:21:56.024Z,100537.16
2022-09-10T10:24:29.530Z,100540.25
2022-09-10T10:26:55.872Z,100541.84
2022-09-10T10:29:22.236Z,100537.56
2022-09-10T10:31:50.720Z,100541.25
2022-09-10T10:34:28.996Z,100548.44
2022-09-10T10:37:01.277Z,100549.88
2022-09-10T10:39:36.938Z,100549.03
2022-09-10T10:42:08.891Z,100551.00
2022-09-10T10:44:44.143Z,100540.41
2022-09-10T10:47:22.462Z,100544.03
2022-09-10T10:49:56.942Z,100542.19
2022-09-10T10:52:26.467Z,100537.56
2022-09-10T10:54:59.420Z,100530.25
2022-09-10T10:57:30.641Z,100544.50
2022-09-10T10:59:59.630Z,100539.25
2022-09-10T11:02:34.704Z,100547.47
2022-09-10T11:05:05.134Z,100554.19
2022-09-10T11:07:34.066Z,100536.66
2022-09-10T11:10:03.592Z,100533.84
2022-09-10T11:12:31.594Z,100534.56
2022-09-10T11:15:00.275Z,100532.97
2022-09-10T11:17:29.802Z,100540.06
2022-09-10T11:20:27.756Z,100537.97
2022-09-10T11:22:51.438Z,100547.72
2022-09-10T11:25:20.928Z,100547.56
2022-09-10T11:27:50.316Z,100547.56
2022-09-10T11:30:17.102Z,100551.00
2022-09-10T11:32:46.379Z,100543.09
2022-09-10T11:35:19.484Z,100554.91
2022-09-10T11:37:50.085Z,100543.44
2022-09-10T11:40:19.524Z,100547.72
2022-09-10T11:42:50.548Z,100543.94
2022-09-10T11:45:18.450Z,100551.13
2022-09-10T11:47:48.399Z,100551.84
2022-09-10T11:50:22.412Z,100535.88
2022-09-10T11:52:48.922Z,100540.50
2022-09-10T11:55:16.294Z,100538.56
2022-09-10T11:57:47.829Z,100540.25
2022-09-10T12:00:15.506Z,100546.47
2022-09-10T12:02:56.733Z,100558.31
2022-09-10T12:05:27.631Z,100563.81
2022-09-10T12:07:59.511Z,100563.69
2022-09-10T12:10:31.684Z,100564.41
2022-09-10T12:12:58.417Z,100567.25
2022-09-10T12:15:26.083Z,100568.19
2022-09-10T12:17:55.707Z,100560.88
2022-09-10T12:20:27.382Z,100563.31
2022-09-10T12:22:55.362Z,100555.94
2022-09-10T12:25:24.873Z,100555.84
2022-09-10T12:27:52.413Z,100555.00
2022-09-10T12:30:30.413Z,100555.00
2022-09-10T12:32:57.478Z,100558.38
2022-09-10T12:35:38.658Z,100552.16
2022-09-10T12:38:19.798Z,100561.66
2022-09-10T12:40:47.469Z,100569.72
2022-09-10T12:43:28.601Z,100570.84
2022-09-10T12:46:03.898Z,100575.06
2022-09-10T12:48:32.390Z,100576.31
2022-09-10T12:50:59.286Z,100575.34
2022-09-10T12:53:37.359Z,100567.28
2022-09-10T12:56:15.833Z,100569.00
2022-09-10T12:58:51.202Z,100565.47
2022-09-10T13:01:23.628Z,100561.66
2022-09-10T13:03:54.887Z,100568.88
2022-09-10T13:06:33.405Z,100562.66
2022-09-10T13:08:59.768Z,100576.06
2022-09-10T13:11:30.159Z,100577.91
2022-09-10T13:14:00.718Z,100562.78
2022-09-10T13:16:37.185Z,100575.47
2022-09-10T13:19:18.364Z,100581.28
2022-09-10T13:21:53.424Z,100585.81
2022-09-10T13:24:32.222Z,100582.44
2022-09-10T13:27:04.407Z,100576.22
2022-09-10T13:29:33.627Z,100573.78
2022-09-10T13:32:03.346Z,100574.38
2022-09-10T13:34:40.582Z,100574.50
2022-09-10T13:37:22.043Z,100580.84
2022-09-10T13:40:02.178Z,100580.72
2022-09-10T13:42:39.928Z,100580.19
2022-09-10T13:45:20.489Z,100576.66
2022-09-10T13:47:48.341Z,100581.19
2022-09-10T13:50:17.474Z,100582.78
2022-09-10T13:52:45.922Z,100578.50
2022-09-10T13:55:15.153Z,100583.88
2022-09-10T13:57:44.552Z,100582.19
2022-09-10T14:00:19.119Z,100581.03
2022-09-10T14:02:46.256Z,100567.75
2022-09-10T14:05:27.520Z,100581.03
2022-09-10T14:07:54.924Z,100578.50
2022-09-10T14:10:21.428Z,100578.50
2022-09-10T14:12:50.050Z,100574.81
2022-09-10T14:15:19.497Z,100571.16
2022-09-10T14:17:48.200Z,100578.50
2022-09-10T14:20:17.858Z,100580.44
2022-09-10T14:22:44.431Z,100579.34
2022-09-10T14:25:25.601Z,100589.25
2022-09-10T14:27:55.335Z,100577.75
2022-09-10T14:30:24.358Z,100575.94
2022-09-10T14:32:51.427Z,100583.88
2022-09-10T14:35:30.669Z,100577.66
2022-09-10T14:37:56.999Z,100579.50
2022-09-10T14:40:23.353Z,100578.59
2022-09-10T14:42:50.345Z,100579.34
2022-09-10T14:45:31.516Z,100582.19
2022-09-10T14:47:59.197Z,100577.50
2022-09-10T14:50:27.416Z,100579.59
2022-09-10T14:52:54.209Z,100580.44
2022-09-10T14:55:20.979Z,100579.59
2022-09-10T14:57:47.291Z,100577.91
2022-09-10T15:00:14.433Z,100581.28
2022-09-10T15:02:41.679Z,100584.97
2022-09-10T15:05:12.265Z,100571.53
2022-09-10T15:07:38.758Z,100574.81
2022-09-10T15:10:05.625Z,100584.56
2022-09-10T15:12:32.359Z,100581.03
2022-09-10T15:14:58.842Z,100587.25
2022-09-10T15:17:25.334Z,100581.88
2022-09-10T15:19:51.635Z,100584.56
2022-09-10T15:22:21.229Z,100580.34
2022-09-10T15:25:08.669Z,100583.88
2022-09-10T15:27:33.931Z,100582.03
2022-09-10T15:30:00.222Z,100575.81
2022-09-10T15:32:26.534Z,100572.28
2022-09-10T15:34:52.875Z,100577.66
2022-09-10T15:37:20.505Z,100570.28
2022-09-10T15:39:46.972Z,100563.84
2022-09-10T15:42:13.753Z,100565.53
2022-09-10T15:44:40.071Z,100560.06
2022-09-10T15:47:06.422Z,100564.44
2022-09-10T15:49:34.361Z,100569.22
2022-09-10T15:52:00.674Z,100568.38
2022-09-10T15:54:28.339Z,100571.91
2022-09-10T15:56:54.649Z,100565.53
2022-09-10T15:59:22.550Z,100569.22
2022-09-10T16:01:48.886Z,100572.75
2022-09-10T16:04:15.189Z,100576.19
2022-09-10T16:06:41.522Z,100570.25
2022-09-10T16:09:08.774Z,100573.94
2022-09-10T16:11:37.725Z,100571.25
2022-09-10T16:14:05.468Z,100567.72
2022-09-10T16:16:31.920Z,100572.09
2022-09-10T16:18:58.232Z,100573.09
2022-09-10T16:21:25.941Z,100573.09
2022-09-10T16:23:53.671Z,100583.44
2022-09-10T16:26:21.484Z,100585.16
2022-09-10T16:28:50.357Z,100581.47
2022-09-10T16:31:17.754Z,100594.63
2022-09-10T16:33:45.019Z,100586.00
2022-09-10T16:36:11.756Z,100587.94
2022-09-10T16:38:38.225Z,100580.88
2022-09-10T16:41:05.875Z,100584.28
2022-09-10T16:43:32.795Z,100586.97
2022-09-10T16:46:00.536Z,100582.31
2022-09-10T16:48:26.900Z,100581.47
2022-09-10T16:50:53.260Z,100589.63
2022-09-10T16:53:19.560Z,100587.09
2022-09-10T16:55:45.874Z,100587.69
2022-09-10T16:58:12.204Z,100587.94
2022-09-10T17:00:38.495Z,100588.94
2022-09-10T17:03:06.219Z,100583.56
2022-09-10T17:05:32.548Z,100590.63
2022-09-10T17:07:58.882Z,100595.63
2022-09-10T17:10:25.181Z,100592.31
2022-09-10T17:12:51.515Z,100600.38
2022-09-10T17:15:17.924Z,100607.75
2022-09-10T17:17:44.205Z,100601.84
2022-09-10T17:20:11.810Z,100610.03
2022-09-10T17:22:38.130Z,100600.13
2022-09-10T17:25:04.726Z,100598.44
2022-09-10T17:27:31.073Z,100605.63
2022-09-10T17:29:57.395Z,100606.22
2022-09-10T17:32:23.764Z,100608.19
2022-09-10T17:34:50.195Z,100599.03
2022-09-10T17:37:17.842Z,100606.81
2022-09-10T17:39:44.202Z,100605.81
2022-09-10T17:42:10.550Z,100603.88
2022-09-10T17:44:36.863Z,100615.59
2022-09-10T17:47:03.274Z,100607.66
2022-09-10T17:49:29.563Z,100611.34
2022-09-10T17:51:55.898Z,100611.09
2022-09-10T17:54:23.582Z,100613.78
2022-09-10T17:56:49.883Z,100619.13
2022-09-10T17:59:16.201Z,100609.50
2022-09-10T18:01:42.779Z,100604.38
2022-09-10T18:04:10.416Z,100603.13
2022-09-10T18:06:37.101Z,100605.13
2022-09-10T18:09:04.006Z,100616.81
2022-09-10T18:11:32.709Z,100613.28
2022-09-10T18:13:59.459Z,100605.38
2022-09-10T18:16:26.581Z,100616.38
2022-09-10T18:18:53.513Z,100619.06
2022-09-10T18:21:20.984Z,100610.88
2022-09-10T18:23:50.044Z,100619.06
2022-09-10T18:26:17.522Z,100624.44
2022-09-10T18:28:51.389Z,100627.72
2022-09-10T18:31:17.745Z,100634.06
2022-09-10T18:33:44.092Z,100627.84
2022-09-10T18:36:11.345Z,100630.66
2022-09-10T18:38:37.753Z,100631.66
2022-09-10T18:41:04.114Z,100637.03
2022-09-10T18:43:30.649Z,100642.41
2022-09-10T18:46:01.085Z,100645.19
2022-09-10T18:48:27.404Z,100640.81
2022-09-10T18:50:53.852Z,100649.00
2022-09-10T18:53:20.165Z,100642.75
2022-09-10T18:55:46.475Z,100649.00
2022-09-10T18:58:12.789Z,100645.59
2022-09-10T19:00:39.096Z,100653.50
2022-09-10T19:03:06.713Z,100657.19
2022-09-10T19:05:36.332Z,100651.94
2022-09-10T19:08:02.647Z,100657.44
2022-09-10T19:10:29.080Z,100655.88
2022-09-10T19:12:55.413Z,100664.91
2022-09-10T19:15:21.705Z,100665.88
2022-09-10T19:17:48.029Z,100660.66
2022-09-10T19:20:15.658Z,100658.06
2022-09-10T19:22:42.070Z,100660.75
2022-09-10T19:25:08.681Z,100666.09
2022-09-10T19:27:35.023Z,100670.63
2022-09-10T19:30:01.345Z,100669.03
2022-09-10T19:32:27.654Z,100680.78
2022-09-10T19:34:53.987Z,100680.91
2022-09-10T19:37:21.587Z,100681.03
2022-09-10T19:39:48.016Z,100680.19
2022-09-10T19:42:14.461Z,100674.94
2022-09-10T19:44:40.762Z,100680.44
2022-09-10T19:47:07.098Z,100668.84
2022-09-10T19:49:33.419Z,100674.31
2022-09-10T19:51:59.724Z,100677.16
2022-09-10T19:54:27.450Z,100684.22
2022-09-10T19:56:53.790Z,100687.88
2022-09-10T19:59:20.109Z,100679.84
2022-09-10T20:01:46.542Z,100685.19
2022-09-10T20:04:13.154Z,100687.16
2022-09-10T20:06:39.526Z,100683.50
2022-09-10T20:09:07.051Z,100688.13
2022-09-10T20:11:35.117Z,100692.66
2022-09-10T20:14:02.473Z,100694.75
2022-09-10T20:16:29.037Z,100692.06
2022-09-10T20:18:55.413Z,100689.38
2022-09-10T20:21:22.533Z,100690.47
2022-09-10T20:23:49.553Z,100682.56
2022-09-10T20:26:17.118Z,100699.50
2022-09-10T20:28:44.726Z,100686.22
2022-09-10T20:31:13.000Z,100688.63
2022-09-10T20:33:40.200Z,100691.72
2022-09-10T20:36:08.769Z,100690.84
2022-09-10T20:38:35.081Z,100694.53
2022-09-10T20:41:01.430Z,100686.47
2022-09-10T20:43:27.836Z,100690.13
2022-09-10T20:45:55.659Z,100692.09
2022-09-10T20:48:22.065Z,100697.47
2022-09-10T20:50:51.622Z,100699.41
2022-09-10T20:53:17.963Z,100696.88
2022-09-10T20:55:44.251Z,100701.38
2022-09-10T20:58:10.624Z,100697.97
2022-09-10T21:00:36.977Z,100698.94
2022-09-10T21:03:04.656Z,100703.47
2022-09-10T21:05:30.986Z,100700.03
2022-09-10T21:07:57.289Z,100703.72
2022-09-10T21:10:23.592Z,100699.28
2022-09-10T21:12:49.924Z,100704.66
2022-09-10T21:15:16.297Z,100699.19
2022-09-10T21:17:42.785Z,100708.09
2022-09-10T21:20:10.703Z,100717.97
2022-09-10T21:22:37.000Z,100719.06
2022-09-10T21:25:03.621Z,100725.53
2022-09-10T21:27:29.952Z,100720.06
2022-09-10T21:29:56.353Z,100721.16
2022-09-10T21:32:22.669Z,100710.41
2022-09-10T21:34:49.006Z,100713.94
2022-09-10T21:37:16.660Z,100706.88
2022-09-10T21:39:42.972Z,100715.06
2022-09-10T21:42:09.546Z,100708.81
2022-09-10T21:44:35.891Z,100722.38
2022-09-10T21:47:02.204Z,100717.16
2022-09-10T21:49:28.646Z,100720.69
2022-09-10T21:51:55.088Z,100718.94
2022-09-10T21:54:22.813Z,100728.72
2022-09-10T21:56:49.508Z,100731.53
2022-09-10T21:59:16.063Z,100732.38
2022-09-10T22:01:43.162Z,100736.88
2022-09-10T22:04:09.844Z,100740.69
2022-09-10T22:06:36.146Z,100743.47
2022-09-10T22:09:03.877Z,100740.69
2022-09-10T22:11:32.786Z,100748.00
2022-09-10T22:13:59.949Z,100750.81
2022-09-10T22:16:27.090Z,100752.63
2022-09-10T22:18:55.011Z,100757.97
2022-09-10T22:21:22.134Z,100753.59
2022-09-10T22:23:48.614Z,100759.19
2022-09-10T22:26:15.676Z,100748.47
2022-09-10T22:28:43.478Z,100750.19
2022-09-10T22:31:11.682Z,100748.47
2022-09-10T22:33:38.390Z,100742.16
2022-09-10T22:36:08.460Z,100748.47
2022-09-10T22:38:34.809Z,100751.28
2022-09-10T22:41:01.426Z,100741.66
2022-09-10T22:43:27.759Z,100748.84
2022-09-10T22:45:55.380Z,100741.78
2022-09-10T22:48:21.717Z,100736.44
2022-09-10T22:50:48.012Z,100733.59
2022-09-10T22:53:14.442Z,100732.75
2022-09-10T22:55:40.766Z,100732.88
2022-09-10T22:58:07.107Z,100742.63
2022-09-10T23:00:33.627Z,100736.53
2022-09-10T23:03:01.272Z,100727.78
2022-09-10T23:05:27.748Z,100729.47
2022-09-10T23:07:54.040Z,100733.13
2022-09-10T23:10:20.344Z,100742.13
2022-09-10T23:12:46.653Z,100741.19
2022-09-10T23:15:15.026Z,100740.44
2022-09-10T23:17:41.359Z,100744.09
2022-09-10T23:20:09.352Z,100743.25
2022-09-10T23:22:35.650Z,100738.84
2022-09-10T23:25:02.052Z,100741.66
2022-09-10T23:27:28.342Z,100742.66
2022-09-10T23:29:54.623Z,100742.66
2022-09-10T23:32:20.944Z,100738.13
2022-09-10T23:34:47.260Z,100742.66
2022-09-10T23:37:14.950Z,100737.28
2022-09-10T23:39:41.284Z,100739.22
2022-09-10T23:42:07.612Z,100733.84
2022-09-10T23:44:34.152Z,100725.91
2022-09-10T23:47:00.544Z,100730.41
2022-09-10T23:49:26.906Z,100742.09
2022-09-10T23:51:53.302Z,100737.59
2022-09-10T23:54:20.932Z,100739.44
2022-09-10T23:56:47.382Z,100745.63
2022-09-10T23:59:13.731Z,100744.06
